<?xml version="1.0" encoding="UTF-8" standalone="no" ?>
<gpx xmlns="http://www.topografix.com/GPX/1/1" xmlns:xsi="http://www.w3.org/2001/XMLSchema-instance" xsi:schemaLocation="http://www.topografix.com/GPX/1/1 http://www.topografix.com/GPX/1/1/gpx.xsd" version="1.1" creator="VisuGPX - https://www.visugpx.com">
  <metadata>
    <name>GR70-10 en ETAPES-E1</name>
  </metadata>
  <trk>
    <name><![CDATA[12462613-GR70-10 ETAPES-E1]]></name>
    <trkseg>
      <trkpt lat="45.04158" lon="3.8878">
        <ele>624</ele>
        <time>2021-02-01T11:44:28Z</time>
      </trkpt>
      <trkpt lat="45.04158" lon="3.88763">
        <ele>625</ele>
        <time>2021-02-01T11:44:38Z</time>
      </trkpt>
      <trkpt lat="45.04154" lon="3.88749">
        <ele>625</ele>
        <time>2021-02-01T11:44:46Z</time>
      </trkpt>
      <trkpt lat="45.04149" lon="3.88755">
        <ele>625</ele>
        <time>2021-02-01T11:44:51Z</time>
      </trkpt>
      <trkpt lat="45.04141" lon="3.88765">
        <ele>625</ele>
        <time>2021-02-01T11:45:00Z</time>
      </trkpt>
      <trkpt lat="45.04136" lon="3.88775">
        <ele>625</ele>
        <time>2021-02-01T11:45:07Z</time>
      </trkpt>
      <trkpt lat="45.04126" lon="3.88803">
        <ele>625</ele>
        <time>2021-02-01T11:45:25Z</time>
      </trkpt>
      <trkpt lat="45.04116" lon="3.88815">
        <ele>625</ele>
        <time>2021-02-01T11:45:35Z</time>
      </trkpt>
      <trkpt lat="45.04112" lon="3.88828">
        <ele>626</ele>
        <time>2021-02-01T11:45:43Z</time>
      </trkpt>
      <trkpt lat="45.04113" lon="3.88839">
        <ele>626</ele>
        <time>2021-02-01T11:45:49Z</time>
      </trkpt>
      <trkpt lat="45.04105" lon="3.88923">
        <ele>629</ele>
        <time>2021-02-01T11:46:37Z</time>
      </trkpt>
      <trkpt lat="45.04105" lon="3.88949">
        <ele>631</ele>
        <time>2021-02-01T11:46:52Z</time>
      </trkpt>
      <trkpt lat="45.04118" lon="3.89023">
        <ele>635</ele>
        <time>2021-02-01T11:47:35Z</time>
      </trkpt>
      <trkpt lat="45.04126" lon="3.89064">
        <ele>637</ele>
        <time>2021-02-01T11:47:59Z</time>
      </trkpt>
      <trkpt lat="45.04127" lon="3.89071">
        <ele>637</ele>
        <time>2021-02-01T11:48:03Z</time>
      </trkpt>
      <trkpt lat="45.0413" lon="3.89084">
        <ele>637</ele>
        <time>2021-02-01T11:48:11Z</time>
      </trkpt>
      <trkpt lat="45.04139" lon="3.89122">
        <ele>639</ele>
        <time>2021-02-01T11:48:34Z</time>
      </trkpt>
      <trkpt lat="45.04148" lon="3.89149">
        <ele>640</ele>
        <time>2021-02-01T11:48:51Z</time>
      </trkpt>
      <trkpt lat="45.04155" lon="3.89167">
        <ele>641</ele>
        <time>2021-02-01T11:49:02Z</time>
      </trkpt>
      <trkpt lat="45.04081" lon="3.89261">
        <ele>655</ele>
        <time>2021-02-01T11:50:22Z</time>
      </trkpt>
      <trkpt lat="45.04067" lon="3.89284">
        <ele>657</ele>
        <time>2021-02-01T11:50:39Z</time>
      </trkpt>
      <trkpt lat="45.0405" lon="3.89321">
        <ele>660</ele>
        <time>2021-02-01T11:51:04Z</time>
      </trkpt>
      <trkpt lat="45.04038" lon="3.89365">
        <ele>663</ele>
        <time>2021-02-01T11:51:31Z</time>
      </trkpt>
      <trkpt lat="45.04029" lon="3.89427">
        <ele>667</ele>
        <time>2021-02-01T11:52:07Z</time>
      </trkpt>
      <trkpt lat="45.04021" lon="3.89466">
        <ele>669</ele>
        <time>2021-02-01T11:52:29Z</time>
      </trkpt>
      <trkpt lat="45.04013" lon="3.89492">
        <ele>670</ele>
        <time>2021-02-01T11:52:46Z</time>
      </trkpt>
      <trkpt lat="45.04001" lon="3.89543">
        <ele>673</ele>
        <time>2021-02-01T11:53:16Z</time>
      </trkpt>
      <trkpt lat="45.03996" lon="3.89558">
        <ele>675</ele>
        <time>2021-02-01T11:53:25Z</time>
      </trkpt>
      <trkpt lat="45.03989" lon="3.8957">
        <ele>676</ele>
        <time>2021-02-01T11:53:34Z</time>
      </trkpt>
      <trkpt lat="45.03981" lon="3.89578">
        <ele>678</ele>
        <time>2021-02-01T11:53:42Z</time>
      </trkpt>
      <trkpt lat="45.03963" lon="3.89591">
        <ele>681</ele>
        <time>2021-02-01T11:53:58Z</time>
      </trkpt>
      <trkpt lat="45.03938" lon="3.89604">
        <ele>685</ele>
        <time>2021-02-01T11:54:19Z</time>
      </trkpt>
      <trkpt lat="45.03929" lon="3.89611">
        <ele>687</ele>
        <time>2021-02-01T11:54:28Z</time>
      </trkpt>
      <trkpt lat="45.03914" lon="3.89629">
        <ele>690</ele>
        <time>2021-02-01T11:54:43Z</time>
      </trkpt>
      <trkpt lat="45.03888" lon="3.89667">
        <ele>695</ele>
        <time>2021-02-01T11:55:13Z</time>
      </trkpt>
      <trkpt lat="45.03873" lon="3.89692">
        <ele>698</ele>
        <time>2021-02-01T11:55:32Z</time>
      </trkpt>
      <trkpt lat="45.03867" lon="3.89707">
        <ele>699</ele>
        <time>2021-02-01T11:55:42Z</time>
      </trkpt>
      <trkpt lat="45.03864" lon="3.89705">
        <ele>699</ele>
        <time>2021-02-01T11:55:44Z</time>
      </trkpt>
      <trkpt lat="45.03777" lon="3.897">
        <ele>704</ele>
        <time>2021-02-01T11:56:54Z</time>
      </trkpt>
      <trkpt lat="45.03771" lon="3.89698">
        <ele>704</ele>
        <time>2021-02-01T11:56:59Z</time>
      </trkpt>
      <trkpt lat="45.03768" lon="3.89694">
        <ele>704</ele>
        <time>2021-02-01T11:57:02Z</time>
      </trkpt>
      <trkpt lat="45.0376" lon="3.897">
        <ele>705</ele>
        <time>2021-02-01T11:57:10Z</time>
      </trkpt>
      <trkpt lat="45.03755" lon="3.89705">
        <ele>706</ele>
        <time>2021-02-01T11:57:14Z</time>
      </trkpt>
      <trkpt lat="45.03749" lon="3.89732">
        <ele>708</ele>
        <time>2021-02-01T11:57:30Z</time>
      </trkpt>
      <trkpt lat="45.03744" lon="3.89741">
        <ele>709</ele>
        <time>2021-02-01T11:57:37Z</time>
      </trkpt>
      <trkpt lat="45.03724" lon="3.89762">
        <ele>713</ele>
        <time>2021-02-01T11:57:57Z</time>
      </trkpt>
      <trkpt lat="45.03703" lon="3.89779">
        <ele>718</ele>
        <time>2021-02-01T11:58:16Z</time>
      </trkpt>
      <trkpt lat="45.03666" lon="3.89808">
        <ele>727</ele>
        <time>2021-02-01T11:58:50Z</time>
      </trkpt>
      <trkpt lat="45.03615" lon="3.89859">
        <ele>740</ele>
        <time>2021-02-01T11:59:40Z</time>
      </trkpt>
      <trkpt lat="45.03557" lon="3.89921">
        <ele>753</ele>
        <time>2021-02-01T12:00:38Z</time>
      </trkpt>
      <trkpt lat="45.03552" lon="3.89936">
        <ele>754</ele>
        <time>2021-02-01T12:00:48Z</time>
      </trkpt>
      <trkpt lat="45.03542" lon="3.89987">
        <ele>757</ele>
        <time>2021-02-01T12:01:18Z</time>
      </trkpt>
      <trkpt lat="45.03528" lon="3.90038">
        <ele>763</ele>
        <time>2021-02-01T12:01:49Z</time>
      </trkpt>
      <trkpt lat="45.03502" lon="3.90067">
        <ele>771</ele>
        <time>2021-02-01T12:02:15Z</time>
      </trkpt>
      <trkpt lat="45.03495" lon="3.90077">
        <ele>773</ele>
        <time>2021-02-01T12:02:23Z</time>
      </trkpt>
      <trkpt lat="45.03492" lon="3.90088">
        <ele>774</ele>
        <time>2021-02-01T12:02:30Z</time>
      </trkpt>
      <trkpt lat="45.03488" lon="3.90109">
        <ele>775</ele>
        <time>2021-02-01T12:02:42Z</time>
      </trkpt>
      <trkpt lat="45.03482" lon="3.90117">
        <ele>776</ele>
        <time>2021-02-01T12:02:49Z</time>
      </trkpt>
      <trkpt lat="45.03384" lon="3.90152">
        <ele>780</ele>
        <time>2021-02-01T12:04:10Z</time>
      </trkpt>
      <trkpt lat="45.03362" lon="3.90163">
        <ele>780</ele>
        <time>2021-02-01T12:04:28Z</time>
      </trkpt>
      <trkpt lat="45.03336" lon="3.90184">
        <ele>779</ele>
        <time>2021-02-01T12:04:52Z</time>
      </trkpt>
      <trkpt lat="45.03307" lon="3.90205">
        <ele>775</ele>
        <time>2021-02-01T12:05:18Z</time>
      </trkpt>
      <trkpt lat="45.03301" lon="3.90205">
        <ele>775</ele>
        <time>2021-02-01T12:05:23Z</time>
      </trkpt>
      <trkpt lat="45.03288" lon="3.90199">
        <ele>774</ele>
        <time>2021-02-01T12:05:34Z</time>
      </trkpt>
      <trkpt lat="45.03275" lon="3.90185">
        <ele>773</ele>
        <time>2021-02-01T12:05:47Z</time>
      </trkpt>
      <trkpt lat="45.03266" lon="3.90178">
        <ele>773</ele>
        <time>2021-02-01T12:05:55Z</time>
      </trkpt>
      <trkpt lat="45.03262" lon="3.90179">
        <ele>772</ele>
        <time>2021-02-01T12:05:59Z</time>
      </trkpt>
      <trkpt lat="45.03261" lon="3.9021">
        <ele>771</ele>
        <time>2021-02-01T12:06:16Z</time>
      </trkpt>
      <trkpt lat="45.03259" lon="3.9022">
        <ele>770</ele>
        <time>2021-02-01T12:06:22Z</time>
      </trkpt>
      <trkpt lat="45.03255" lon="3.90226">
        <ele>769</ele>
        <time>2021-02-01T12:06:27Z</time>
      </trkpt>
      <trkpt lat="45.03227" lon="3.9024">
        <ele>765</ele>
        <time>2021-02-01T12:06:51Z</time>
      </trkpt>
      <trkpt lat="45.03217" lon="3.90241">
        <ele>763</ele>
        <time>2021-02-01T12:06:59Z</time>
      </trkpt>
      <trkpt lat="45.03213" lon="3.90252">
        <ele>762</ele>
        <time>2021-02-01T12:07:06Z</time>
      </trkpt>
      <trkpt lat="45.03205" lon="3.90259">
        <ele>760</ele>
        <time>2021-02-01T12:07:13Z</time>
      </trkpt>
      <trkpt lat="45.03168" lon="3.90263">
        <ele>755</ele>
        <time>2021-02-01T12:07:43Z</time>
      </trkpt>
      <trkpt lat="45.03159" lon="3.90267">
        <ele>755</ele>
        <time>2021-02-01T12:07:50Z</time>
      </trkpt>
      <trkpt lat="45.03154" lon="3.90274">
        <ele>755</ele>
        <time>2021-02-01T12:07:56Z</time>
      </trkpt>
      <trkpt lat="45.03151" lon="3.90283">
        <ele>754</ele>
        <time>2021-02-01T12:08:02Z</time>
      </trkpt>
      <trkpt lat="45.0315" lon="3.90294">
        <ele>753</ele>
        <time>2021-02-01T12:08:08Z</time>
      </trkpt>
      <trkpt lat="45.0317" lon="3.90446">
        <ele>749</ele>
        <time>2021-02-01T12:09:35Z</time>
      </trkpt>
      <trkpt lat="45.03174" lon="3.90504">
        <ele>747</ele>
        <time>2021-02-01T12:10:08Z</time>
      </trkpt>
      <trkpt lat="45.03179" lon="3.90519">
        <ele>747</ele>
        <time>2021-02-01T12:10:18Z</time>
      </trkpt>
      <trkpt lat="45.03166" lon="3.90537">
        <ele>748</ele>
        <time>2021-02-01T12:10:32Z</time>
      </trkpt>
      <trkpt lat="45.03157" lon="3.90541">
        <ele>748</ele>
        <time>2021-02-01T12:10:40Z</time>
      </trkpt>
      <trkpt lat="45.03105" lon="3.90548">
        <ele>747</ele>
        <time>2021-02-01T12:11:22Z</time>
      </trkpt>
      <trkpt lat="45.03101" lon="3.90552">
        <ele>747</ele>
        <time>2021-02-01T12:11:26Z</time>
      </trkpt>
      <trkpt lat="45.03097" lon="3.9056">
        <ele>748</ele>
        <time>2021-02-01T12:11:31Z</time>
      </trkpt>
      <trkpt lat="45.03097" lon="3.90571">
        <ele>748</ele>
        <time>2021-02-01T12:11:37Z</time>
      </trkpt>
      <trkpt lat="45.03101" lon="3.90579">
        <ele>748</ele>
        <time>2021-02-01T12:11:43Z</time>
      </trkpt>
      <trkpt lat="45.03102" lon="3.90592">
        <ele>749</ele>
        <time>2021-02-01T12:11:50Z</time>
      </trkpt>
      <trkpt lat="45.03098" lon="3.90638">
        <ele>752</ele>
        <time>2021-02-01T12:12:17Z</time>
      </trkpt>
      <trkpt lat="45.03104" lon="3.90662">
        <ele>753</ele>
        <time>2021-02-01T12:12:31Z</time>
      </trkpt>
      <trkpt lat="45.0311" lon="3.90678">
        <ele>754</ele>
        <time>2021-02-01T12:12:41Z</time>
      </trkpt>
      <trkpt lat="45.03114" lon="3.90687">
        <ele>755</ele>
        <time>2021-02-01T12:12:47Z</time>
      </trkpt>
      <trkpt lat="45.03115" lon="3.90697">
        <ele>755</ele>
        <time>2021-02-01T12:12:53Z</time>
      </trkpt>
      <trkpt lat="45.03115" lon="3.90701">
        <ele>756</ele>
        <time>2021-02-01T12:12:55Z</time>
      </trkpt>
      <trkpt lat="45.03115" lon="3.90703">
        <ele>756</ele>
        <time>2021-02-01T12:12:56Z</time>
      </trkpt>
      <trkpt lat="45.0311" lon="3.90709">
        <ele>756</ele>
        <time>2021-02-01T12:13:02Z</time>
      </trkpt>
      <trkpt lat="45.0308" lon="3.90732">
        <ele>756</ele>
        <time>2021-02-01T12:13:29Z</time>
      </trkpt>
      <trkpt lat="45.03022" lon="3.90755">
        <ele>760</ele>
        <time>2021-02-01T12:14:17Z</time>
      </trkpt>
      <trkpt lat="45.03013" lon="3.90764">
        <ele>761</ele>
        <time>2021-02-01T12:14:26Z</time>
      </trkpt>
      <trkpt lat="45.02987" lon="3.90803">
        <ele>766</ele>
        <time>2021-02-01T12:14:56Z</time>
      </trkpt>
      <trkpt lat="45.02979" lon="3.90812">
        <ele>767</ele>
        <time>2021-02-01T12:15:04Z</time>
      </trkpt>
      <trkpt lat="45.02966" lon="3.90821">
        <ele>769</ele>
        <time>2021-02-01T12:15:16Z</time>
      </trkpt>
      <trkpt lat="45.02936" lon="3.9088">
        <ele>779</ele>
        <time>2021-02-01T12:15:57Z</time>
      </trkpt>
      <trkpt lat="45.02925" lon="3.90891">
        <ele>782</ele>
        <time>2021-02-01T12:16:08Z</time>
      </trkpt>
      <trkpt lat="45.02912" lon="3.90902">
        <ele>785</ele>
        <time>2021-02-01T12:16:20Z</time>
      </trkpt>
      <trkpt lat="45.02881" lon="3.90918">
        <ele>791</ele>
        <time>2021-02-01T12:16:47Z</time>
      </trkpt>
      <trkpt lat="45.02855" lon="3.9094">
        <ele>797</ele>
        <time>2021-02-01T12:17:11Z</time>
      </trkpt>
      <trkpt lat="45.02806" lon="3.9097">
        <ele>804</ele>
        <time>2021-02-01T12:17:54Z</time>
      </trkpt>
      <trkpt lat="45.02802" lon="3.90971">
        <ele>804</ele>
        <time>2021-02-01T12:17:57Z</time>
      </trkpt>
      <trkpt lat="45.02749" lon="3.90988">
        <ele>809</ele>
        <time>2021-02-01T12:18:40Z</time>
      </trkpt>
      <trkpt lat="45.0274" lon="3.90993">
        <ele>810</ele>
        <time>2021-02-01T12:18:48Z</time>
      </trkpt>
      <trkpt lat="45.02727" lon="3.91008">
        <ele>812</ele>
        <time>2021-02-01T12:19:01Z</time>
      </trkpt>
      <trkpt lat="45.02714" lon="3.91015">
        <ele>813</ele>
        <time>2021-02-01T12:19:13Z</time>
      </trkpt>
      <trkpt lat="45.027" lon="3.91018">
        <ele>814</ele>
        <time>2021-02-01T12:19:24Z</time>
      </trkpt>
      <trkpt lat="45.02684" lon="3.91015">
        <ele>814</ele>
        <time>2021-02-01T12:19:37Z</time>
      </trkpt>
      <trkpt lat="45.02654" lon="3.91013">
        <ele>816</ele>
        <time>2021-02-01T12:20:01Z</time>
      </trkpt>
      <trkpt lat="45.02605" lon="3.91018">
        <ele>819</ele>
        <time>2021-02-01T12:20:40Z</time>
      </trkpt>
      <trkpt lat="45.02581" lon="3.91024">
        <ele>821</ele>
        <time>2021-02-01T12:21:00Z</time>
      </trkpt>
      <trkpt lat="45.02568" lon="3.91026">
        <ele>821</ele>
        <time>2021-02-01T12:21:10Z</time>
      </trkpt>
      <trkpt lat="45.02516" lon="3.91047">
        <ele>824</ele>
        <time>2021-02-01T12:21:54Z</time>
      </trkpt>
      <trkpt lat="45.02514" lon="3.91051">
        <ele>825</ele>
        <time>2021-02-01T12:21:56Z</time>
      </trkpt>
      <trkpt lat="45.0251" lon="3.91057">
        <ele>825</ele>
        <time>2021-02-01T12:22:01Z</time>
      </trkpt>
      <trkpt lat="45.02483" lon="3.91058">
        <ele>826</ele>
        <time>2021-02-01T12:22:23Z</time>
      </trkpt>
      <trkpt lat="45.02459" lon="3.91052">
        <ele>827</ele>
        <time>2021-02-01T12:22:42Z</time>
      </trkpt>
      <trkpt lat="45.02418" lon="3.91056">
        <ele>829</ele>
        <time>2021-02-01T12:23:15Z</time>
      </trkpt>
      <trkpt lat="45.02392" lon="3.91068">
        <ele>829</ele>
        <time>2021-02-01T12:23:37Z</time>
      </trkpt>
      <trkpt lat="45.02389" lon="3.91073">
        <ele>829</ele>
        <time>2021-02-01T12:23:41Z</time>
      </trkpt>
      <trkpt lat="45.02364" lon="3.91089">
        <ele>830</ele>
        <time>2021-02-01T12:24:03Z</time>
      </trkpt>
      <trkpt lat="45.02337" lon="3.91105">
        <ele>831</ele>
        <time>2021-02-01T12:24:26Z</time>
      </trkpt>
      <trkpt lat="45.02306" lon="3.91126">
        <ele>832</ele>
        <time>2021-02-01T12:24:54Z</time>
      </trkpt>
      <trkpt lat="45.02248" lon="3.91156">
        <ele>831</ele>
        <time>2021-02-01T12:25:43Z</time>
      </trkpt>
      <trkpt lat="45.022" lon="3.91191">
        <ele>830</ele>
        <time>2021-02-01T12:26:26Z</time>
      </trkpt>
      <trkpt lat="45.02173" lon="3.91215">
        <ele>829</ele>
        <time>2021-02-01T12:26:52Z</time>
      </trkpt>
      <trkpt lat="45.02144" lon="3.91256">
        <ele>827</ele>
        <time>2021-02-01T12:27:25Z</time>
      </trkpt>
      <trkpt lat="45.0212" lon="3.91298">
        <ele>827</ele>
        <time>2021-02-01T12:27:55Z</time>
      </trkpt>
      <trkpt lat="45.02107" lon="3.91317">
        <ele>826</ele>
        <time>2021-02-01T12:28:10Z</time>
      </trkpt>
      <trkpt lat="45.02091" lon="3.91335">
        <ele>825</ele>
        <time>2021-02-01T12:28:26Z</time>
      </trkpt>
      <trkpt lat="45.02075" lon="3.91336">
        <ele>823</ele>
        <time>2021-02-01T12:28:39Z</time>
      </trkpt>
      <trkpt lat="45.02029" lon="3.91336">
        <ele>819</ele>
        <time>2021-02-01T12:29:16Z</time>
      </trkpt>
      <trkpt lat="45.02009" lon="3.91344">
        <ele>816</ele>
        <time>2021-02-01T12:29:33Z</time>
      </trkpt>
      <trkpt lat="45.01969" lon="3.91353">
        <ele>812</ele>
        <time>2021-02-01T12:30:05Z</time>
      </trkpt>
      <trkpt lat="45.0196" lon="3.91357">
        <ele>811</ele>
        <time>2021-02-01T12:30:13Z</time>
      </trkpt>
      <trkpt lat="45.0195" lon="3.91364">
        <ele>810</ele>
        <time>2021-02-01T12:30:22Z</time>
      </trkpt>
      <trkpt lat="45.01941" lon="3.91366">
        <ele>808</ele>
        <time>2021-02-01T12:30:29Z</time>
      </trkpt>
      <trkpt lat="45.01916" lon="3.91377">
        <ele>805</ele>
        <time>2021-02-01T12:30:50Z</time>
      </trkpt>
      <trkpt lat="45.01889" lon="3.91386">
        <ele>803</ele>
        <time>2021-02-01T12:31:12Z</time>
      </trkpt>
      <trkpt lat="45.0181" lon="3.91398">
        <ele>798</ele>
        <time>2021-02-01T12:32:16Z</time>
      </trkpt>
      <trkpt lat="45.01789" lon="3.91403">
        <ele>797</ele>
        <time>2021-02-01T12:32:33Z</time>
      </trkpt>
      <trkpt lat="45.01774" lon="3.91408">
        <ele>797</ele>
        <time>2021-02-01T12:32:45Z</time>
      </trkpt>
      <trkpt lat="45.01735" lon="3.91412">
        <ele>795</ele>
        <time>2021-02-01T12:33:16Z</time>
      </trkpt>
      <trkpt lat="45.01719" lon="3.91417">
        <ele>795</ele>
        <time>2021-02-01T12:33:30Z</time>
      </trkpt>
      <trkpt lat="45.01702" lon="3.91427">
        <ele>794</ele>
        <time>2021-02-01T12:33:44Z</time>
      </trkpt>
      <trkpt lat="45.01661" lon="3.91465">
        <ele>793</ele>
        <time>2021-02-01T12:34:24Z</time>
      </trkpt>
      <trkpt lat="45.01639" lon="3.91478">
        <ele>792</ele>
        <time>2021-02-01T12:34:43Z</time>
      </trkpt>
      <trkpt lat="45.01615" lon="3.91486">
        <ele>791</ele>
        <time>2021-02-01T12:35:02Z</time>
      </trkpt>
      <trkpt lat="45.01602" lon="3.91487">
        <ele>791</ele>
        <time>2021-02-01T12:35:13Z</time>
      </trkpt>
      <trkpt lat="45.01596" lon="3.91484">
        <ele>791</ele>
        <time>2021-02-01T12:35:18Z</time>
      </trkpt>
      <trkpt lat="45.01593" lon="3.9148">
        <ele>791</ele>
        <time>2021-02-01T12:35:21Z</time>
      </trkpt>
      <trkpt lat="45.01577" lon="3.91419">
        <ele>788</ele>
        <time>2021-02-01T12:35:58Z</time>
      </trkpt>
      <trkpt lat="45.01567" lon="3.9139">
        <ele>788</ele>
        <time>2021-02-01T12:36:16Z</time>
      </trkpt>
      <trkpt lat="45.01557" lon="3.91371">
        <ele>787</ele>
        <time>2021-02-01T12:36:30Z</time>
      </trkpt>
      <trkpt lat="45.01548" lon="3.91364">
        <ele>787</ele>
        <time>2021-02-01T12:36:38Z</time>
      </trkpt>
      <trkpt lat="45.01542" lon="3.91361">
        <ele>787</ele>
        <time>2021-02-01T12:36:43Z</time>
      </trkpt>
      <trkpt lat="45.01536" lon="3.91363">
        <ele>787</ele>
        <time>2021-02-01T12:36:48Z</time>
      </trkpt>
      <trkpt lat="45.01509" lon="3.9138">
        <ele>786</ele>
        <time>2021-02-01T12:37:12Z</time>
      </trkpt>
      <trkpt lat="45.01498" lon="3.91382">
        <ele>786</ele>
        <time>2021-02-01T12:37:21Z</time>
      </trkpt>
      <trkpt lat="45.01464" lon="3.91375">
        <ele>785</ele>
        <time>2021-02-01T12:37:48Z</time>
      </trkpt>
      <trkpt lat="45.01451" lon="3.91369">
        <ele>785</ele>
        <time>2021-02-01T12:37:59Z</time>
      </trkpt>
      <trkpt lat="45.01426" lon="3.91347">
        <ele>784</ele>
        <time>2021-02-01T12:38:23Z</time>
      </trkpt>
      <trkpt lat="45.01418" lon="3.91344">
        <ele>784</ele>
        <time>2021-02-01T12:38:29Z</time>
      </trkpt>
      <trkpt lat="45.01412" lon="3.91346">
        <ele>784</ele>
        <time>2021-02-01T12:38:34Z</time>
      </trkpt>
      <trkpt lat="45.01407" lon="3.91351">
        <ele>784</ele>
        <time>2021-02-01T12:38:39Z</time>
      </trkpt>
      <trkpt lat="45.01401" lon="3.91369">
        <ele>784</ele>
        <time>2021-02-01T12:38:50Z</time>
      </trkpt>
      <trkpt lat="45.01397" lon="3.91375">
        <ele>784</ele>
        <time>2021-02-01T12:38:55Z</time>
      </trkpt>
      <trkpt lat="45.01389" lon="3.91381">
        <ele>784</ele>
        <time>2021-02-01T12:39:02Z</time>
      </trkpt>
      <trkpt lat="45.01377" lon="3.91385">
        <ele>784</ele>
        <time>2021-02-01T12:39:12Z</time>
      </trkpt>
      <trkpt lat="45.01354" lon="3.91372">
        <ele>784</ele>
        <time>2021-02-01T12:39:32Z</time>
      </trkpt>
      <trkpt lat="45.01335" lon="3.91353">
        <ele>785</ele>
        <time>2021-02-01T12:39:51Z</time>
      </trkpt>
      <trkpt lat="45.01325" lon="3.91339">
        <ele>785</ele>
        <time>2021-02-01T12:40:02Z</time>
      </trkpt>
      <trkpt lat="45.01308" lon="3.91295">
        <ele>786</ele>
        <time>2021-02-01T12:40:30Z</time>
      </trkpt>
      <trkpt lat="45.01302" lon="3.91269">
        <ele>787</ele>
        <time>2021-02-01T12:40:46Z</time>
      </trkpt>
      <trkpt lat="45.01299" lon="3.91245">
        <ele>787</ele>
        <time>2021-02-01T12:40:59Z</time>
      </trkpt>
      <trkpt lat="45.01301" lon="3.91222">
        <ele>787</ele>
        <time>2021-02-01T12:41:13Z</time>
      </trkpt>
      <trkpt lat="45.01339" lon="3.91022">
        <ele>791</ele>
        <time>2021-02-01T12:43:10Z</time>
      </trkpt>
      <trkpt lat="45.01342" lon="3.91001">
        <ele>791</ele>
        <time>2021-02-01T12:43:22Z</time>
      </trkpt>
      <trkpt lat="45.01339" lon="3.90949">
        <ele>794</ele>
        <time>2021-02-01T12:43:51Z</time>
      </trkpt>
      <trkpt lat="45.01341" lon="3.90927">
        <ele>795</ele>
        <time>2021-02-01T12:44:04Z</time>
      </trkpt>
      <trkpt lat="45.01349" lon="3.90902">
        <ele>798</ele>
        <time>2021-02-01T12:44:20Z</time>
      </trkpt>
      <trkpt lat="45.01349" lon="3.90888">
        <ele>799</ele>
        <time>2021-02-01T12:44:27Z</time>
      </trkpt>
      <trkpt lat="45.01345" lon="3.90878">
        <ele>799</ele>
        <time>2021-02-01T12:44:34Z</time>
      </trkpt>
      <trkpt lat="45.01339" lon="3.90871">
        <ele>800</ele>
        <time>2021-02-01T12:44:40Z</time>
      </trkpt>
      <trkpt lat="45.01278" lon="3.90753">
        <ele>806</ele>
        <time>2021-02-01T12:46:03Z</time>
      </trkpt>
      <trkpt lat="45.01255" lon="3.90719">
        <ele>807</ele>
        <time>2021-02-01T12:46:30Z</time>
      </trkpt>
      <trkpt lat="45.01248" lon="3.90705">
        <ele>807</ele>
        <time>2021-02-01T12:46:39Z</time>
      </trkpt>
      <trkpt lat="45.01245" lon="3.90692">
        <ele>807</ele>
        <time>2021-02-01T12:46:47Z</time>
      </trkpt>
      <trkpt lat="45.01244" lon="3.90677">
        <ele>808</ele>
        <time>2021-02-01T12:46:56Z</time>
      </trkpt>
      <trkpt lat="45.01242" lon="3.90669">
        <ele>808</ele>
        <time>2021-02-01T12:47:00Z</time>
      </trkpt>
      <trkpt lat="45.01237" lon="3.9067">
        <ele>808</ele>
        <time>2021-02-01T12:47:04Z</time>
      </trkpt>
      <trkpt lat="45.0115" lon="3.90767">
        <ele>806</ele>
        <time>2021-02-01T12:48:33Z</time>
      </trkpt>
      <trkpt lat="45.01137" lon="3.90787">
        <ele>806</ele>
        <time>2021-02-01T12:48:48Z</time>
      </trkpt>
      <trkpt lat="45.01124" lon="3.90812">
        <ele>806</ele>
        <time>2021-02-01T12:49:06Z</time>
      </trkpt>
      <trkpt lat="45.01097" lon="3.90877">
        <ele>804</ele>
        <time>2021-02-01T12:49:49Z</time>
      </trkpt>
      <trkpt lat="45.01054" lon="3.90995">
        <ele>801</ele>
        <time>2021-02-01T12:51:04Z</time>
      </trkpt>
      <trkpt lat="45.01035" lon="3.91038">
        <ele>798</ele>
        <time>2021-02-01T12:51:33Z</time>
      </trkpt>
      <trkpt lat="45.01016" lon="3.91073">
        <ele>794</ele>
        <time>2021-02-01T12:51:58Z</time>
      </trkpt>
      <trkpt lat="45.01005" lon="3.91091">
        <ele>792</ele>
        <time>2021-02-01T12:52:11Z</time>
      </trkpt>
      <trkpt lat="45.00989" lon="3.91106">
        <ele>789</ele>
        <time>2021-02-01T12:52:26Z</time>
      </trkpt>
      <trkpt lat="45.00983" lon="3.91107">
        <ele>788</ele>
        <time>2021-02-01T12:52:31Z</time>
      </trkpt>
      <trkpt lat="45.00973" lon="3.91106">
        <ele>787</ele>
        <time>2021-02-01T12:52:39Z</time>
      </trkpt>
      <trkpt lat="45.00954" lon="3.911">
        <ele>786</ele>
        <time>2021-02-01T12:52:55Z</time>
      </trkpt>
      <trkpt lat="45.00935" lon="3.91089">
        <ele>787</ele>
        <time>2021-02-01T12:53:11Z</time>
      </trkpt>
      <trkpt lat="45.00921" lon="3.91078">
        <ele>789</ele>
        <time>2021-02-01T12:53:24Z</time>
      </trkpt>
      <trkpt lat="45.00869" lon="3.91062">
        <ele>787</ele>
        <time>2021-02-01T12:54:07Z</time>
      </trkpt>
      <trkpt lat="45.00823" lon="3.91059">
        <ele>781</ele>
        <time>2021-02-01T12:54:44Z</time>
      </trkpt>
      <trkpt lat="45.00775" lon="3.91065">
        <ele>770</ele>
        <time>2021-02-01T12:55:22Z</time>
      </trkpt>
      <trkpt lat="45.00735" lon="3.91074">
        <ele>762</ele>
        <time>2021-02-01T12:55:55Z</time>
      </trkpt>
      <trkpt lat="45.00723" lon="3.9108">
        <ele>760</ele>
        <time>2021-02-01T12:56:05Z</time>
      </trkpt>
      <trkpt lat="45.00706" lon="3.91094">
        <ele>757</ele>
        <time>2021-02-01T12:56:21Z</time>
      </trkpt>
      <trkpt lat="45.00674" lon="3.91124">
        <ele>753</ele>
        <time>2021-02-01T12:56:51Z</time>
      </trkpt>
      <trkpt lat="45.00639" lon="3.91161">
        <ele>748</ele>
        <time>2021-02-01T12:57:26Z</time>
      </trkpt>
      <trkpt lat="45.00611" lon="3.91186">
        <ele>743</ele>
        <time>2021-02-01T12:57:53Z</time>
      </trkpt>
      <trkpt lat="45.00609" lon="3.91193">
        <ele>742</ele>
        <time>2021-02-01T12:57:57Z</time>
      </trkpt>
      <trkpt lat="45.0061" lon="3.91214">
        <ele>740</ele>
        <time>2021-02-01T12:58:09Z</time>
      </trkpt>
      <trkpt lat="45.00608" lon="3.91225">
        <ele>738</ele>
        <time>2021-02-01T12:58:15Z</time>
      </trkpt>
      <trkpt lat="45.00603" lon="3.91231">
        <ele>737</ele>
        <time>2021-02-01T12:58:21Z</time>
      </trkpt>
      <trkpt lat="45.00579" lon="3.91238">
        <ele>735</ele>
        <time>2021-02-01T12:58:40Z</time>
      </trkpt>
      <trkpt lat="45.00554" lon="3.91236">
        <ele>733</ele>
        <time>2021-02-01T12:59:00Z</time>
      </trkpt>
      <trkpt lat="45.00547" lon="3.91245">
        <ele>731</ele>
        <time>2021-02-01T12:59:08Z</time>
      </trkpt>
      <trkpt lat="45.00542" lon="3.91245">
        <ele>731</ele>
        <time>2021-02-01T12:59:12Z</time>
      </trkpt>
      <trkpt lat="45.00494" lon="3.91279">
        <ele>724</ele>
        <time>2021-02-01T12:59:55Z</time>
      </trkpt>
      <trkpt lat="45.00479" lon="3.91299">
        <ele>722</ele>
        <time>2021-02-01T13:00:11Z</time>
      </trkpt>
      <trkpt lat="45.00471" lon="3.91306">
        <ele>722</ele>
        <time>2021-02-01T13:00:19Z</time>
      </trkpt>
      <trkpt lat="45.00465" lon="3.91309">
        <ele>721</ele>
        <time>2021-02-01T13:00:24Z</time>
      </trkpt>
      <trkpt lat="45.00447" lon="3.91332">
        <ele>719</ele>
        <time>2021-02-01T13:00:43Z</time>
      </trkpt>
      <trkpt lat="45.00434" lon="3.91346">
        <ele>718</ele>
        <time>2021-02-01T13:00:57Z</time>
      </trkpt>
      <trkpt lat="45.00424" lon="3.91352">
        <ele>717</ele>
        <time>2021-02-01T13:01:05Z</time>
      </trkpt>
      <trkpt lat="45.00415" lon="3.9134">
        <ele>717</ele>
        <time>2021-02-01T13:01:15Z</time>
      </trkpt>
      <trkpt lat="45.00356" lon="3.91303">
        <ele>711</ele>
        <time>2021-02-01T13:02:07Z</time>
      </trkpt>
      <trkpt lat="45.00351" lon="3.91305">
        <ele>710</ele>
        <time>2021-02-01T13:02:11Z</time>
      </trkpt>
      <trkpt lat="45.00326" lon="3.91295">
        <ele>707</ele>
        <time>2021-02-01T13:02:32Z</time>
      </trkpt>
      <trkpt lat="45.00318" lon="3.91295">
        <ele>706</ele>
        <time>2021-02-01T13:02:38Z</time>
      </trkpt>
      <trkpt lat="45.00312" lon="3.91298">
        <ele>705</ele>
        <time>2021-02-01T13:02:43Z</time>
      </trkpt>
      <trkpt lat="45.00308" lon="3.91305">
        <ele>704</ele>
        <time>2021-02-01T13:02:48Z</time>
      </trkpt>
      <trkpt lat="45.00306" lon="3.91311">
        <ele>704</ele>
        <time>2021-02-01T13:02:52Z</time>
      </trkpt>
      <trkpt lat="45.00304" lon="3.91326">
        <ele>703</ele>
        <time>2021-02-01T13:03:01Z</time>
      </trkpt>
      <trkpt lat="45.00313" lon="3.91401">
        <ele>699</ele>
        <time>2021-02-01T13:03:44Z</time>
      </trkpt>
      <trkpt lat="45.00308" lon="3.91423">
        <ele>697</ele>
        <time>2021-02-01T13:03:57Z</time>
      </trkpt>
      <trkpt lat="45.003" lon="3.91435">
        <ele>695</ele>
        <time>2021-02-01T13:04:06Z</time>
      </trkpt>
      <trkpt lat="45.0028" lon="3.91453">
        <ele>691</ele>
        <time>2021-02-01T13:04:25Z</time>
      </trkpt>
      <trkpt lat="45.00205" lon="3.91507">
        <ele>682</ele>
        <time>2021-02-01T13:05:33Z</time>
      </trkpt>
      <trkpt lat="45.00112" lon="3.91562">
        <ele>673</ele>
        <time>2021-02-01T13:06:53Z</time>
      </trkpt>
      <trkpt lat="45.00076" lon="3.91573">
        <ele>669</ele>
        <time>2021-02-01T13:07:23Z</time>
      </trkpt>
      <trkpt lat="45.00074" lon="3.91579">
        <ele>669</ele>
        <time>2021-02-01T13:07:27Z</time>
      </trkpt>
      <trkpt lat="45.00075" lon="3.91587">
        <ele>668</ele>
        <time>2021-02-01T13:07:31Z</time>
      </trkpt>
      <trkpt lat="45.00081" lon="3.91597">
        <ele>667</ele>
        <time>2021-02-01T13:07:39Z</time>
      </trkpt>
      <trkpt lat="45.00103" lon="3.91626">
        <ele>667</ele>
        <time>2021-02-01T13:08:03Z</time>
      </trkpt>
      <trkpt lat="45.00107" lon="3.9164">
        <ele>666</ele>
        <time>2021-02-01T13:08:11Z</time>
      </trkpt>
      <trkpt lat="45.00104" lon="3.91681">
        <ele>662</ele>
        <time>2021-02-01T13:08:35Z</time>
      </trkpt>
      <trkpt lat="45.00101" lon="3.91701">
        <ele>661</ele>
        <time>2021-02-01T13:08:46Z</time>
      </trkpt>
      <trkpt lat="44.99972" lon="3.91705">
        <ele>646</ele>
        <time>2021-02-01T13:10:29Z</time>
      </trkpt>
      <trkpt lat="44.9994" lon="3.917">
        <ele>642</ele>
        <time>2021-02-01T13:10:55Z</time>
      </trkpt>
      <trkpt lat="44.99927" lon="3.91707">
        <ele>640</ele>
        <time>2021-02-01T13:11:06Z</time>
      </trkpt>
      <trkpt lat="44.99885" lon="3.91749">
        <ele>633</ele>
        <time>2021-02-01T13:11:48Z</time>
      </trkpt>
      <trkpt lat="44.99876" lon="3.91712">
        <ele>632</ele>
        <time>2021-02-01T13:12:10Z</time>
      </trkpt>
      <trkpt lat="44.99874" lon="3.91697">
        <ele>632</ele>
        <time>2021-02-01T13:12:18Z</time>
      </trkpt>
      <trkpt lat="44.9987" lon="3.91699">
        <ele>632</ele>
        <time>2021-02-01T13:12:22Z</time>
      </trkpt>
      <trkpt lat="44.99864" lon="3.91701">
        <ele>631</ele>
        <time>2021-02-01T13:12:27Z</time>
      </trkpt>
      <trkpt lat="44.9977" lon="3.91728">
        <ele>628</ele>
        <time>2021-02-01T13:13:43Z</time>
      </trkpt>
      <trkpt lat="44.99759" lon="3.91732">
        <ele>629</ele>
        <time>2021-02-01T13:13:53Z</time>
      </trkpt>
      <trkpt lat="44.99746" lon="3.9174">
        <ele>629</ele>
        <time>2021-02-01T13:14:04Z</time>
      </trkpt>
      <trkpt lat="44.99738" lon="3.9175">
        <ele>630</ele>
        <time>2021-02-01T13:14:12Z</time>
      </trkpt>
      <trkpt lat="44.99732" lon="3.91762">
        <ele>630</ele>
        <time>2021-02-01T13:14:21Z</time>
      </trkpt>
      <trkpt lat="44.99726" lon="3.91776">
        <ele>631</ele>
        <time>2021-02-01T13:14:30Z</time>
      </trkpt>
      <trkpt lat="44.99721" lon="3.91792">
        <ele>631</ele>
        <time>2021-02-01T13:14:40Z</time>
      </trkpt>
      <trkpt lat="44.99714" lon="3.91803">
        <ele>632</ele>
        <time>2021-02-01T13:14:48Z</time>
      </trkpt>
      <trkpt lat="44.99702" lon="3.91818">
        <ele>632</ele>
        <time>2021-02-01T13:15:01Z</time>
      </trkpt>
      <trkpt lat="44.99698" lon="3.91821">
        <ele>632</ele>
        <time>2021-02-01T13:15:05Z</time>
      </trkpt>
      <trkpt lat="44.9969" lon="3.91828">
        <ele>632</ele>
        <time>2021-02-01T13:15:12Z</time>
      </trkpt>
      <trkpt lat="44.99661" lon="3.91838">
        <ele>633</ele>
        <time>2021-02-01T13:15:36Z</time>
      </trkpt>
      <trkpt lat="44.99659" lon="3.91839">
        <ele>633</ele>
        <time>2021-02-01T13:15:38Z</time>
      </trkpt>
      <trkpt lat="44.99646" lon="3.91841">
        <ele>634</ele>
        <time>2021-02-01T13:15:48Z</time>
      </trkpt>
      <trkpt lat="44.99633" lon="3.91841">
        <ele>634</ele>
        <time>2021-02-01T13:15:59Z</time>
      </trkpt>
      <trkpt lat="44.99622" lon="3.91839">
        <ele>634</ele>
        <time>2021-02-01T13:16:08Z</time>
      </trkpt>
      <trkpt lat="44.99606" lon="3.91835">
        <ele>634</ele>
        <time>2021-02-01T13:16:21Z</time>
      </trkpt>
      <trkpt lat="44.99586" lon="3.91826">
        <ele>635</ele>
        <time>2021-02-01T13:16:37Z</time>
      </trkpt>
      <trkpt lat="44.99579" lon="3.91825">
        <ele>636</ele>
        <time>2021-02-01T13:16:43Z</time>
      </trkpt>
      <trkpt lat="44.99575" lon="3.91824">
        <ele>636</ele>
        <time>2021-02-01T13:16:46Z</time>
      </trkpt>
      <trkpt lat="44.99568" lon="3.91816">
        <ele>637</ele>
        <time>2021-02-01T13:16:54Z</time>
      </trkpt>
      <trkpt lat="44.99545" lon="3.91805">
        <ele>639</ele>
        <time>2021-02-01T13:17:13Z</time>
      </trkpt>
      <trkpt lat="44.99482" lon="3.91776">
        <ele>646</ele>
        <time>2021-02-01T13:18:06Z</time>
      </trkpt>
      <trkpt lat="44.99476" lon="3.91775">
        <ele>647</ele>
        <time>2021-02-01T13:18:11Z</time>
      </trkpt>
      <trkpt lat="44.99471" lon="3.91776">
        <ele>648</ele>
        <time>2021-02-01T13:18:15Z</time>
      </trkpt>
      <trkpt lat="44.9946" lon="3.91785">
        <ele>649</ele>
        <time>2021-02-01T13:18:25Z</time>
      </trkpt>
      <trkpt lat="44.99433" lon="3.91824">
        <ele>651</ele>
        <time>2021-02-01T13:18:56Z</time>
      </trkpt>
      <trkpt lat="44.9938" lon="3.91878">
        <ele>661</ele>
        <time>2021-02-01T13:19:48Z</time>
      </trkpt>
      <trkpt lat="44.99365" lon="3.91897">
        <ele>664</ele>
        <time>2021-02-01T13:20:04Z</time>
      </trkpt>
      <trkpt lat="44.99311" lon="3.92013">
        <ele>675</ele>
        <time>2021-02-01T13:21:23Z</time>
      </trkpt>
      <trkpt lat="44.9928" lon="3.92061">
        <ele>678</ele>
        <time>2021-02-01T13:22:00Z</time>
      </trkpt>
      <trkpt lat="44.9927" lon="3.92073">
        <ele>678</ele>
        <time>2021-02-01T13:22:10Z</time>
      </trkpt>
      <trkpt lat="44.99234" lon="3.92069">
        <ele>681</ele>
        <time>2021-02-01T13:22:39Z</time>
      </trkpt>
      <trkpt lat="44.99176" lon="3.92051">
        <ele>688</ele>
        <time>2021-02-01T13:23:27Z</time>
      </trkpt>
      <trkpt lat="44.99167" lon="3.92045">
        <ele>690</ele>
        <time>2021-02-01T13:23:35Z</time>
      </trkpt>
      <trkpt lat="44.99158" lon="3.92027">
        <ele>692</ele>
        <time>2021-02-01T13:23:47Z</time>
      </trkpt>
      <trkpt lat="44.9914" lon="3.91971">
        <ele>699</ele>
        <time>2021-02-01T13:24:22Z</time>
      </trkpt>
      <trkpt lat="44.99133" lon="3.91957">
        <ele>700</ele>
        <time>2021-02-01T13:24:32Z</time>
      </trkpt>
      <trkpt lat="44.99097" lon="3.91914">
        <ele>708</ele>
        <time>2021-02-01T13:25:10Z</time>
      </trkpt>
      <trkpt lat="44.99065" lon="3.91872">
        <ele>715</ele>
        <time>2021-02-01T13:25:45Z</time>
      </trkpt>
      <trkpt lat="44.99059" lon="3.91857">
        <ele>717</ele>
        <time>2021-02-01T13:25:54Z</time>
      </trkpt>
      <trkpt lat="44.99057" lon="3.91841">
        <ele>718</ele>
        <time>2021-02-01T13:26:03Z</time>
      </trkpt>
      <trkpt lat="44.9906" lon="3.91785">
        <ele>723</ele>
        <time>2021-02-01T13:26:35Z</time>
      </trkpt>
      <trkpt lat="44.99069" lon="3.9174">
        <ele>727</ele>
        <time>2021-02-01T13:27:02Z</time>
      </trkpt>
      <trkpt lat="44.99075" lon="3.91716">
        <ele>730</ele>
        <time>2021-02-01T13:27:16Z</time>
      </trkpt>
      <trkpt lat="44.99075" lon="3.91704">
        <ele>732</ele>
        <time>2021-02-01T13:27:23Z</time>
      </trkpt>
      <trkpt lat="44.99074" lon="3.91699">
        <ele>733</ele>
        <time>2021-02-01T13:27:26Z</time>
      </trkpt>
      <trkpt lat="44.99068" lon="3.91693">
        <ele>734</ele>
        <time>2021-02-01T13:27:32Z</time>
      </trkpt>
      <trkpt lat="44.99032" lon="3.91673">
        <ele>740</ele>
        <time>2021-02-01T13:28:03Z</time>
      </trkpt>
      <trkpt lat="44.99028" lon="3.91669">
        <ele>740</ele>
        <time>2021-02-01T13:28:07Z</time>
      </trkpt>
      <trkpt lat="44.99027" lon="3.91662">
        <ele>741</ele>
        <time>2021-02-01T13:28:11Z</time>
      </trkpt>
      <trkpt lat="44.9903" lon="3.91655">
        <ele>742</ele>
        <time>2021-02-01T13:28:15Z</time>
      </trkpt>
      <trkpt lat="44.9909" lon="3.91579">
        <ele>744</ele>
        <time>2021-02-01T13:29:20Z</time>
      </trkpt>
      <trkpt lat="44.99093" lon="3.91573">
        <ele>744</ele>
        <time>2021-02-01T13:29:24Z</time>
      </trkpt>
      <trkpt lat="44.99092" lon="3.91568">
        <ele>744</ele>
        <time>2021-02-01T13:29:27Z</time>
      </trkpt>
      <trkpt lat="44.99088" lon="3.91562">
        <ele>745</ele>
        <time>2021-02-01T13:29:32Z</time>
      </trkpt>
      <trkpt lat="44.9908" lon="3.91559">
        <ele>746</ele>
        <time>2021-02-01T13:29:38Z</time>
      </trkpt>
      <trkpt lat="44.98998" lon="3.91537">
        <ele>759</ele>
        <time>2021-02-01T13:30:45Z</time>
      </trkpt>
      <trkpt lat="44.98987" lon="3.91532">
        <ele>762</ele>
        <time>2021-02-01T13:30:54Z</time>
      </trkpt>
      <trkpt lat="44.98979" lon="3.91524">
        <ele>764</ele>
        <time>2021-02-01T13:31:02Z</time>
      </trkpt>
      <trkpt lat="44.9895" lon="3.91473">
        <ele>772</ele>
        <time>2021-02-01T13:31:39Z</time>
      </trkpt>
      <trkpt lat="44.98878" lon="3.91362">
        <ele>775</ele>
        <time>2021-02-01T13:33:05Z</time>
      </trkpt>
      <trkpt lat="44.98869" lon="3.91353">
        <ele>775</ele>
        <time>2021-02-01T13:33:13Z</time>
      </trkpt>
      <trkpt lat="44.98856" lon="3.91347">
        <ele>776</ele>
        <time>2021-02-01T13:33:24Z</time>
      </trkpt>
      <trkpt lat="44.9881" lon="3.91341">
        <ele>780</ele>
        <time>2021-02-01T13:34:01Z</time>
      </trkpt>
      <trkpt lat="44.98709" lon="3.91379">
        <ele>791</ele>
        <time>2021-02-01T13:35:25Z</time>
      </trkpt>
      <trkpt lat="44.98692" lon="3.91383">
        <ele>793</ele>
        <time>2021-02-01T13:35:39Z</time>
      </trkpt>
      <trkpt lat="44.98664" lon="3.91379">
        <ele>794</ele>
        <time>2021-02-01T13:36:01Z</time>
      </trkpt>
      <trkpt lat="44.98613" lon="3.91384">
        <ele>799</ele>
        <time>2021-02-01T13:36:42Z</time>
      </trkpt>
      <trkpt lat="44.98596" lon="3.9139">
        <ele>801</ele>
        <time>2021-02-01T13:36:56Z</time>
      </trkpt>
      <trkpt lat="44.98574" lon="3.91403">
        <ele>804</ele>
        <time>2021-02-01T13:37:15Z</time>
      </trkpt>
      <trkpt lat="44.9853" lon="3.91441">
        <ele>809</ele>
        <time>2021-02-01T13:37:57Z</time>
      </trkpt>
      <trkpt lat="44.98518" lon="3.91446">
        <ele>810</ele>
        <time>2021-02-01T13:38:07Z</time>
      </trkpt>
      <trkpt lat="44.9851" lon="3.91445">
        <ele>810</ele>
        <time>2021-02-01T13:38:13Z</time>
      </trkpt>
      <trkpt lat="44.98492" lon="3.91419">
        <ele>811</ele>
        <time>2021-02-01T13:38:34Z</time>
      </trkpt>
      <trkpt lat="44.98435" lon="3.91356">
        <ele>807</ele>
        <time>2021-02-01T13:39:32Z</time>
      </trkpt>
      <trkpt lat="44.98423" lon="3.91348">
        <ele>807</ele>
        <time>2021-02-01T13:39:42Z</time>
      </trkpt>
      <trkpt lat="44.9841" lon="3.91374">
        <ele>809</ele>
        <time>2021-02-01T13:40:00Z</time>
      </trkpt>
      <trkpt lat="44.98406" lon="3.91384">
        <ele>809</ele>
        <time>2021-02-01T13:40:07Z</time>
      </trkpt>
      <trkpt lat="44.98406" lon="3.91406">
        <ele>810</ele>
        <time>2021-02-01T13:40:19Z</time>
      </trkpt>
      <trkpt lat="44.98403" lon="3.91448">
        <ele>812</ele>
        <time>2021-02-01T13:40:43Z</time>
      </trkpt>
      <trkpt lat="44.98407" lon="3.91483">
        <ele>813</ele>
        <time>2021-02-01T13:41:03Z</time>
      </trkpt>
      <trkpt lat="44.98403" lon="3.91503">
        <ele>814</ele>
        <time>2021-02-01T13:41:15Z</time>
      </trkpt>
      <trkpt lat="44.98393" lon="3.9153">
        <ele>815</ele>
        <time>2021-02-01T13:41:32Z</time>
      </trkpt>
      <trkpt lat="44.9838" lon="3.91555">
        <ele>815</ele>
        <time>2021-02-01T13:41:50Z</time>
      </trkpt>
      <trkpt lat="44.98365" lon="3.91577">
        <ele>816</ele>
        <time>2021-02-01T13:42:07Z</time>
      </trkpt>
      <trkpt lat="44.98333" lon="3.91613">
        <ele>817</ele>
        <time>2021-02-01T13:42:40Z</time>
      </trkpt>
      <trkpt lat="44.98287" lon="3.91675">
        <ele>823</ele>
        <time>2021-02-01T13:43:31Z</time>
      </trkpt>
      <trkpt lat="44.98271" lon="3.91691">
        <ele>825</ele>
        <time>2021-02-01T13:43:46Z</time>
      </trkpt>
      <trkpt lat="44.98259" lon="3.91699">
        <ele>826</ele>
        <time>2021-02-01T13:43:57Z</time>
      </trkpt>
      <trkpt lat="44.98248" lon="3.91702">
        <ele>827</ele>
        <time>2021-02-01T13:44:06Z</time>
      </trkpt>
      <trkpt lat="44.98241" lon="3.91701">
        <ele>828</ele>
        <time>2021-02-01T13:44:12Z</time>
      </trkpt>
      <trkpt lat="44.98222" lon="3.91689">
        <ele>830</ele>
        <time>2021-02-01T13:44:28Z</time>
      </trkpt>
      <trkpt lat="44.98204" lon="3.91684">
        <ele>831</ele>
        <time>2021-02-01T13:44:43Z</time>
      </trkpt>
      <trkpt lat="44.98189" lon="3.91685">
        <ele>833</ele>
        <time>2021-02-01T13:44:55Z</time>
      </trkpt>
      <trkpt lat="44.98175" lon="3.91691">
        <ele>835</ele>
        <time>2021-02-01T13:45:07Z</time>
      </trkpt>
      <trkpt lat="44.98161" lon="3.91706">
        <ele>837</ele>
        <time>2021-02-01T13:45:21Z</time>
      </trkpt>
      <trkpt lat="44.98153" lon="3.91725">
        <ele>838</ele>
        <time>2021-02-01T13:45:33Z</time>
      </trkpt>
      <trkpt lat="44.98146" lon="3.91752">
        <ele>839</ele>
        <time>2021-02-01T13:45:50Z</time>
      </trkpt>
      <trkpt lat="44.98141" lon="3.9178">
        <ele>840</ele>
        <time>2021-02-01T13:46:06Z</time>
      </trkpt>
      <trkpt lat="44.98142" lon="3.91804">
        <ele>840</ele>
        <time>2021-02-01T13:46:20Z</time>
      </trkpt>
      <trkpt lat="44.98146" lon="3.91831">
        <ele>840</ele>
        <time>2021-02-01T13:46:35Z</time>
      </trkpt>
      <trkpt lat="44.98145" lon="3.91844">
        <ele>840</ele>
        <time>2021-02-01T13:46:43Z</time>
      </trkpt>
      <trkpt lat="44.98139" lon="3.91859">
        <ele>841</ele>
        <time>2021-02-01T13:46:52Z</time>
      </trkpt>
      <trkpt lat="44.97942" lon="3.9217">
        <ele>859</ele>
        <time>2021-02-01T13:50:49Z</time>
      </trkpt>
      <trkpt lat="44.97904" lon="3.92255">
        <ele>866</ele>
        <time>2021-02-01T13:51:46Z</time>
      </trkpt>
      <trkpt lat="44.97864" lon="3.92335">
        <ele>872</ele>
        <time>2021-02-01T13:52:41Z</time>
      </trkpt>
      <trkpt lat="44.97761" lon="3.92505">
        <ele>882</ele>
        <time>2021-02-01T13:54:48Z</time>
      </trkpt>
      <trkpt lat="44.97752" lon="3.92516">
        <ele>883</ele>
        <time>2021-02-01T13:54:58Z</time>
      </trkpt>
      <trkpt lat="44.97713" lon="3.9255">
        <ele>886</ele>
        <time>2021-02-01T13:55:34Z</time>
      </trkpt>
      <trkpt lat="44.97689" lon="3.92581">
        <ele>887</ele>
        <time>2021-02-01T13:56:00Z</time>
      </trkpt>
      <trkpt lat="44.97654" lon="3.92635">
        <ele>889</ele>
        <time>2021-02-01T13:56:42Z</time>
      </trkpt>
      <trkpt lat="44.97634" lon="3.92673">
        <ele>890</ele>
        <time>2021-02-01T13:57:09Z</time>
      </trkpt>
      <trkpt lat="44.97613" lon="3.92707">
        <ele>888</ele>
        <time>2021-02-01T13:57:34Z</time>
      </trkpt>
      <trkpt lat="44.97591" lon="3.92734">
        <ele>887</ele>
        <time>2021-02-01T13:57:58Z</time>
      </trkpt>
      <trkpt lat="44.9757" lon="3.92751">
        <ele>886</ele>
        <time>2021-02-01T13:58:17Z</time>
      </trkpt>
      <trkpt lat="44.9754" lon="3.92765">
        <ele>885</ele>
        <time>2021-02-01T13:58:42Z</time>
      </trkpt>
      <trkpt lat="44.97513" lon="3.92782">
        <ele>883</ele>
        <time>2021-02-01T13:59:06Z</time>
      </trkpt>
      <trkpt lat="44.9749" lon="3.92792">
        <ele>881</ele>
        <time>2021-02-01T13:59:25Z</time>
      </trkpt>
      <trkpt lat="44.97463" lon="3.92797">
        <ele>881</ele>
        <time>2021-02-01T13:59:47Z</time>
      </trkpt>
      <trkpt lat="44.97444" lon="3.92804">
        <ele>881</ele>
        <time>2021-02-01T14:00:03Z</time>
      </trkpt>
      <trkpt lat="44.97406" lon="3.92831">
        <ele>880</ele>
        <time>2021-02-01T14:00:37Z</time>
      </trkpt>
      <trkpt lat="44.97345" lon="3.92913">
        <ele>878</ele>
        <time>2021-02-01T14:01:44Z</time>
      </trkpt>
      <trkpt lat="44.97324" lon="3.9297">
        <ele>877</ele>
        <time>2021-02-01T14:02:21Z</time>
      </trkpt>
      <trkpt lat="44.97321" lon="3.92984">
        <ele>877</ele>
        <time>2021-02-01T14:02:29Z</time>
      </trkpt>
      <trkpt lat="44.97306" lon="3.93002">
        <ele>877</ele>
        <time>2021-02-01T14:02:45Z</time>
      </trkpt>
      <trkpt lat="44.973" lon="3.93015">
        <ele>876</ele>
        <time>2021-02-01T14:02:53Z</time>
      </trkpt>
      <trkpt lat="44.97242" lon="3.9318">
        <ele>877</ele>
        <time>2021-02-01T14:04:38Z</time>
      </trkpt>
      <trkpt lat="44.97173" lon="3.93351">
        <ele>880</ele>
        <time>2021-02-01T14:06:29Z</time>
      </trkpt>
      <trkpt lat="44.97163" lon="3.93383">
        <ele>882</ele>
        <time>2021-02-01T14:06:49Z</time>
      </trkpt>
      <trkpt lat="44.97135" lon="3.93448">
        <ele>883</ele>
        <time>2021-02-01T14:07:32Z</time>
      </trkpt>
      <trkpt lat="44.97127" lon="3.93465">
        <ele>883</ele>
        <time>2021-02-01T14:07:44Z</time>
      </trkpt>
      <trkpt lat="44.97101" lon="3.93502">
        <ele>883</ele>
        <time>2021-02-01T14:08:13Z</time>
      </trkpt>
      <trkpt lat="44.97073" lon="3.93537">
        <ele>883</ele>
        <time>2021-02-01T14:08:43Z</time>
      </trkpt>
      <trkpt lat="44.97066" lon="3.93554">
        <ele>884</ele>
        <time>2021-02-01T14:08:54Z</time>
      </trkpt>
      <trkpt lat="44.97058" lon="3.93578">
        <ele>886</ele>
        <time>2021-02-01T14:09:09Z</time>
      </trkpt>
      <trkpt lat="44.97026" lon="3.93637">
        <ele>890</ele>
        <time>2021-02-01T14:09:51Z</time>
      </trkpt>
      <trkpt lat="44.97013" lon="3.93667">
        <ele>892</ele>
        <time>2021-02-01T14:10:11Z</time>
      </trkpt>
      <trkpt lat="44.96989" lon="3.93702">
        <ele>890</ele>
        <time>2021-02-01T14:10:39Z</time>
      </trkpt>
      <trkpt lat="44.96969" lon="3.93737">
        <ele>889</ele>
        <time>2021-02-01T14:11:04Z</time>
      </trkpt>
      <trkpt lat="44.96934" lon="3.93823">
        <ele>887</ele>
        <time>2021-02-01T14:12:01Z</time>
      </trkpt>
      <trkpt lat="44.96918" lon="3.93865">
        <ele>886</ele>
        <time>2021-02-01T14:12:28Z</time>
      </trkpt>
      <trkpt lat="44.96908" lon="3.93884">
        <ele>886</ele>
        <time>2021-02-01T14:12:41Z</time>
      </trkpt>
      <trkpt lat="44.96891" lon="3.93914">
        <ele>885</ele>
        <time>2021-02-01T14:13:03Z</time>
      </trkpt>
      <trkpt lat="44.96825" lon="3.94001">
        <ele>890</ele>
        <time>2021-02-01T14:14:15Z</time>
      </trkpt>
      <trkpt lat="44.96719" lon="3.94104">
        <ele>891</ele>
        <time>2021-02-01T14:15:58Z</time>
      </trkpt>
      <trkpt lat="44.96675" lon="3.94143">
        <ele>890</ele>
        <time>2021-02-01T14:16:40Z</time>
      </trkpt>
      <trkpt lat="44.96629" lon="3.94199">
        <ele>889</ele>
        <time>2021-02-01T14:17:28Z</time>
      </trkpt>
      <trkpt lat="44.96611" lon="3.94224">
        <ele>889</ele>
        <time>2021-02-01T14:17:49Z</time>
      </trkpt>
      <trkpt lat="44.9656" lon="3.94271">
        <ele>890</ele>
        <time>2021-02-01T14:18:37Z</time>
      </trkpt>
      <trkpt lat="44.96548" lon="3.94285">
        <ele>890</ele>
        <time>2021-02-01T14:18:50Z</time>
      </trkpt>
      <trkpt lat="44.96493" lon="3.9437">
        <ele>890</ele>
        <time>2021-02-01T14:19:55Z</time>
      </trkpt>
      <trkpt lat="44.96444" lon="3.94453">
        <ele>888</ele>
        <time>2021-02-01T14:20:56Z</time>
      </trkpt>
      <trkpt lat="44.96412" lon="3.9452">
        <ele>889</ele>
        <time>2021-02-01T14:21:42Z</time>
      </trkpt>
      <trkpt lat="44.964" lon="3.94543">
        <ele>888</ele>
        <time>2021-02-01T14:21:58Z</time>
      </trkpt>
      <trkpt lat="44.96364" lon="3.94594">
        <ele>887</ele>
        <time>2021-02-01T14:22:39Z</time>
      </trkpt>
      <trkpt lat="44.96253" lon="3.9474">
        <ele>890</ele>
        <time>2021-02-01T14:24:40Z</time>
      </trkpt>
      <trkpt lat="44.96248" lon="3.94743">
        <ele>890</ele>
        <time>2021-02-01T14:24:45Z</time>
      </trkpt>
      <trkpt lat="44.96243" lon="3.94754">
        <ele>891</ele>
        <time>2021-02-01T14:24:52Z</time>
      </trkpt>
      <trkpt lat="44.96194" lon="3.94837">
        <ele>894</ele>
        <time>2021-02-01T14:25:53Z</time>
      </trkpt>
      <trkpt lat="44.96189" lon="3.94854">
        <ele>895</ele>
        <time>2021-02-01T14:26:04Z</time>
      </trkpt>
      <trkpt lat="44.96188" lon="3.94873">
        <ele>897</ele>
        <time>2021-02-01T14:26:15Z</time>
      </trkpt>
      <trkpt lat="44.96187" lon="3.94928">
        <ele>901</ele>
        <time>2021-02-01T14:26:46Z</time>
      </trkpt>
      <trkpt lat="44.96194" lon="3.9498">
        <ele>906</ele>
        <time>2021-02-01T14:27:16Z</time>
      </trkpt>
      <trkpt lat="44.96202" lon="3.9502">
        <ele>908</ele>
        <time>2021-02-01T14:27:39Z</time>
      </trkpt>
      <trkpt lat="44.96204" lon="3.95049">
        <ele>909</ele>
        <time>2021-02-01T14:27:56Z</time>
      </trkpt>
      <trkpt lat="44.96204" lon="3.95117">
        <ele>912</ele>
        <time>2021-02-01T14:28:34Z</time>
      </trkpt>
      <trkpt lat="44.9621" lon="3.95162">
        <ele>911</ele>
        <time>2021-02-01T14:29:00Z</time>
      </trkpt>
      <trkpt lat="44.96214" lon="3.95206">
        <ele>910</ele>
        <time>2021-02-01T14:29:25Z</time>
      </trkpt>
      <trkpt lat="44.96214" lon="3.95258">
        <ele>909</ele>
        <time>2021-02-01T14:29:55Z</time>
      </trkpt>
      <trkpt lat="44.96218" lon="3.95297">
        <ele>910</ele>
        <time>2021-02-01T14:30:17Z</time>
      </trkpt>
      <trkpt lat="44.96222" lon="3.95315">
        <ele>910</ele>
        <time>2021-02-01T14:30:28Z</time>
      </trkpt>
      <trkpt lat="44.96219" lon="3.95379">
        <ele>911</ele>
        <time>2021-02-01T14:31:04Z</time>
      </trkpt>
      <trkpt lat="44.96225" lon="3.9543">
        <ele>909</ele>
        <time>2021-02-01T14:31:34Z</time>
      </trkpt>
      <trkpt lat="44.96238" lon="3.95644">
        <ele>914</ele>
        <time>2021-02-01T14:33:35Z</time>
      </trkpt>
      <trkpt lat="44.96244" lon="3.95694">
        <ele>913</ele>
        <time>2021-02-01T14:34:04Z</time>
      </trkpt>
      <trkpt lat="44.96252" lon="3.9581">
        <ele>907</ele>
        <time>2021-02-01T14:35:10Z</time>
      </trkpt>
      <trkpt lat="44.96258" lon="3.95852">
        <ele>901</ele>
        <time>2021-02-01T14:35:34Z</time>
      </trkpt>
      <trkpt lat="44.96257" lon="3.95857">
        <ele>901</ele>
        <time>2021-02-01T14:35:37Z</time>
      </trkpt>
      <trkpt lat="44.96247" lon="3.95884">
        <ele>899</ele>
        <time>2021-02-01T14:35:55Z</time>
      </trkpt>
      <trkpt lat="44.96184" lon="3.96001">
        <ele>895</ele>
        <time>2021-02-01T14:37:18Z</time>
      </trkpt>
      <trkpt lat="44.96167" lon="3.96038">
        <ele>894</ele>
        <time>2021-02-01T14:37:43Z</time>
      </trkpt>
      <trkpt lat="44.96147" lon="3.96105">
        <ele>890</ele>
        <time>2021-02-01T14:38:24Z</time>
      </trkpt>
      <trkpt lat="44.96125" lon="3.96147">
        <ele>888</ele>
        <time>2021-02-01T14:38:54Z</time>
      </trkpt>
      <trkpt lat="44.96091" lon="3.9618">
        <ele>887</ele>
        <time>2021-02-01T14:39:27Z</time>
      </trkpt>
      <trkpt lat="44.96083" lon="3.96185">
        <ele>887</ele>
        <time>2021-02-01T14:39:34Z</time>
      </trkpt>
      <trkpt lat="44.96077" lon="3.96187">
        <ele>888</ele>
        <time>2021-02-01T14:39:39Z</time>
      </trkpt>
      <trkpt lat="44.96043" lon="3.96183">
        <ele>895</ele>
        <time>2021-02-01T14:40:06Z</time>
      </trkpt>
      <trkpt lat="44.96036" lon="3.96187">
        <ele>896</ele>
        <time>2021-02-01T14:40:12Z</time>
      </trkpt>
      <trkpt lat="44.96023" lon="3.96197">
        <ele>897</ele>
        <time>2021-02-01T14:40:24Z</time>
      </trkpt>
      <trkpt lat="44.96007" lon="3.96216">
        <ele>897</ele>
        <time>2021-02-01T14:40:41Z</time>
      </trkpt>
      <trkpt lat="44.9598" lon="3.96275">
        <ele>894</ele>
        <time>2021-02-01T14:41:20Z</time>
      </trkpt>
      <trkpt lat="44.95975" lon="3.96293">
        <ele>893</ele>
        <time>2021-02-01T14:41:31Z</time>
      </trkpt>
      <trkpt lat="44.95961" lon="3.9631">
        <ele>894</ele>
        <time>2021-02-01T14:41:46Z</time>
      </trkpt>
      <trkpt lat="44.95939" lon="3.96322">
        <ele>898</ele>
        <time>2021-02-01T14:42:05Z</time>
      </trkpt>
      <trkpt lat="44.95931" lon="3.96335">
        <ele>898</ele>
        <time>2021-02-01T14:42:15Z</time>
      </trkpt>
      <trkpt lat="44.95909" lon="3.96381">
        <ele>900</ele>
        <time>2021-02-01T14:42:46Z</time>
      </trkpt>
      <trkpt lat="44.95898" lon="3.9643">
        <ele>899</ele>
        <time>2021-02-01T14:43:15Z</time>
      </trkpt>
      <trkpt lat="44.95897" lon="3.96448">
        <ele>897</ele>
        <time>2021-02-01T14:43:26Z</time>
      </trkpt>
      <trkpt lat="44.95891" lon="3.9647">
        <ele>896</ele>
        <time>2021-02-01T14:43:39Z</time>
      </trkpt>
      <trkpt lat="44.95829" lon="3.96583">
        <ele>896</ele>
        <time>2021-02-01T14:45:00Z</time>
      </trkpt>
      <trkpt lat="44.95821" lon="3.96594">
        <ele>895</ele>
        <time>2021-02-01T14:45:09Z</time>
      </trkpt>
      <trkpt lat="44.95808" lon="3.96608">
        <ele>894</ele>
        <time>2021-02-01T14:45:22Z</time>
      </trkpt>
      <trkpt lat="44.95788" lon="3.9662">
        <ele>895</ele>
        <time>2021-02-01T14:45:39Z</time>
      </trkpt>
      <trkpt lat="44.95701" lon="3.96705">
        <ele>895</ele>
        <time>2021-02-01T14:47:04Z</time>
      </trkpt>
      <trkpt lat="44.9563" lon="3.96813">
        <ele>893</ele>
        <time>2021-02-01T14:48:28Z</time>
      </trkpt>
      <trkpt lat="44.95573" lon="3.96907">
        <ele>896</ele>
        <time>2021-02-01T14:49:38Z</time>
      </trkpt>
      <trkpt lat="44.95568" lon="3.96911">
        <ele>896</ele>
        <time>2021-02-01T14:49:42Z</time>
      </trkpt>
      <trkpt lat="44.95565" lon="3.96921">
        <ele>896</ele>
        <time>2021-02-01T14:49:48Z</time>
      </trkpt>
      <trkpt lat="44.95555" lon="3.96938">
        <ele>896</ele>
        <time>2021-02-01T14:50:01Z</time>
      </trkpt>
      <trkpt lat="44.9555" lon="3.96956">
        <ele>895</ele>
        <time>2021-02-01T14:50:12Z</time>
      </trkpt>
      <trkpt lat="44.95545" lon="3.96994">
        <ele>894</ele>
        <time>2021-02-01T14:50:34Z</time>
      </trkpt>
      <trkpt lat="44.95534" lon="3.97042">
        <ele>894</ele>
        <time>2021-02-01T14:51:02Z</time>
      </trkpt>
      <trkpt lat="44.95536" lon="3.97063">
        <ele>893</ele>
        <time>2021-02-01T14:51:14Z</time>
      </trkpt>
      <trkpt lat="44.95513" lon="3.97062">
        <ele>895</ele>
        <time>2021-02-01T14:51:33Z</time>
      </trkpt>
      <trkpt lat="44.95499" lon="3.97056">
        <ele>897</ele>
        <time>2021-02-01T14:51:45Z</time>
      </trkpt>
      <trkpt lat="44.95494" lon="3.97057">
        <ele>898</ele>
        <time>2021-02-01T14:51:49Z</time>
      </trkpt>
      <trkpt lat="44.95481" lon="3.97065">
        <ele>900</ele>
        <time>2021-02-01T14:52:00Z</time>
      </trkpt>
      <trkpt lat="44.95462" lon="3.97074">
        <ele>902</ele>
        <time>2021-02-01T14:52:16Z</time>
      </trkpt>
      <trkpt lat="44.95452" lon="3.97094">
        <ele>903</ele>
        <time>2021-02-01T14:52:30Z</time>
      </trkpt>
      <trkpt lat="44.9541" lon="3.97095">
        <ele>910</ele>
        <time>2021-02-01T14:53:03Z</time>
      </trkpt>
      <trkpt lat="44.95348" lon="3.97113">
        <ele>921</ele>
        <time>2021-02-01T14:53:54Z</time>
      </trkpt>
      <trkpt lat="44.95342" lon="3.97112">
        <ele>922</ele>
        <time>2021-02-01T14:53:59Z</time>
      </trkpt>
      <trkpt lat="44.95339" lon="3.97108">
        <ele>923</ele>
        <time>2021-02-01T14:54:02Z</time>
      </trkpt>
      <trkpt lat="44.95341" lon="3.97094">
        <ele>923</ele>
        <time>2021-02-01T14:54:10Z</time>
      </trkpt>
      <trkpt lat="44.95339" lon="3.9709">
        <ele>924</ele>
        <time>2021-02-01T14:54:13Z</time>
      </trkpt>
      <trkpt lat="44.95331" lon="3.97087">
        <ele>925</ele>
        <time>2021-02-01T14:54:20Z</time>
      </trkpt>
      <trkpt lat="44.95312" lon="3.97084">
        <ele>930</ele>
        <time>2021-02-01T14:54:35Z</time>
      </trkpt>
      <trkpt lat="44.95288" lon="3.97075">
        <ele>936</ele>
        <time>2021-02-01T14:54:55Z</time>
      </trkpt>
      <trkpt lat="44.95259" lon="3.97058">
        <ele>945</ele>
        <time>2021-02-01T14:55:20Z</time>
      </trkpt>
      <trkpt lat="44.95244" lon="3.97045">
        <ele>950</ele>
        <time>2021-02-01T14:55:34Z</time>
      </trkpt>
      <trkpt lat="44.9523" lon="3.97041">
        <ele>953</ele>
        <time>2021-02-01T14:55:46Z</time>
      </trkpt>
      <trkpt lat="44.95217" lon="3.9704">
        <ele>956</ele>
        <time>2021-02-01T14:55:56Z</time>
      </trkpt>
      <trkpt lat="44.95192" lon="3.97032">
        <ele>961</ele>
        <time>2021-02-01T14:56:17Z</time>
      </trkpt>
      <trkpt lat="44.9516" lon="3.97027">
        <ele>967</ele>
        <time>2021-02-01T14:56:42Z</time>
      </trkpt>
      <trkpt lat="44.9512" lon="3.97019">
        <ele>972</ele>
        <time>2021-02-01T14:57:15Z</time>
      </trkpt>
      <trkpt lat="44.95114" lon="3.97021">
        <ele>972</ele>
        <time>2021-02-01T14:57:20Z</time>
      </trkpt>
      <trkpt lat="44.95107" lon="3.97028">
        <ele>973</ele>
        <time>2021-02-01T14:57:27Z</time>
      </trkpt>
      <trkpt lat="44.95099" lon="3.97032">
        <ele>974</ele>
        <time>2021-02-01T14:57:33Z</time>
      </trkpt>
      <trkpt lat="44.95088" lon="3.97034">
        <ele>975</ele>
        <time>2021-02-01T14:57:42Z</time>
      </trkpt>
      <trkpt lat="44.95034" lon="3.97036">
        <ele>977</ele>
        <time>2021-02-01T14:58:25Z</time>
      </trkpt>
      <trkpt lat="44.94954" lon="3.97029">
        <ele>978</ele>
        <time>2021-02-01T14:59:30Z</time>
      </trkpt>
      <trkpt lat="44.94949" lon="3.97032">
        <ele>978</ele>
        <time>2021-02-01T14:59:34Z</time>
      </trkpt>
      <trkpt lat="44.9494" lon="3.9703">
        <ele>978</ele>
        <time>2021-02-01T14:59:41Z</time>
      </trkpt>
      <trkpt lat="44.94895" lon="3.97008">
        <ele>977</ele>
        <time>2021-02-01T15:00:19Z</time>
      </trkpt>
      <trkpt lat="44.94874" lon="3.97001">
        <ele>977</ele>
        <time>2021-02-01T15:00:37Z</time>
      </trkpt>
      <trkpt lat="44.94858" lon="3.97004">
        <ele>977</ele>
        <time>2021-02-01T15:00:50Z</time>
      </trkpt>
      <trkpt lat="44.94831" lon="3.97021">
        <ele>978</ele>
        <time>2021-02-01T15:01:13Z</time>
      </trkpt>
      <trkpt lat="44.94773" lon="3.97075">
        <ele>979</ele>
        <time>2021-02-01T15:02:09Z</time>
      </trkpt>
      <trkpt lat="44.94779" lon="3.97089">
        <ele>980</ele>
        <time>2021-02-01T15:02:18Z</time>
      </trkpt>
      <trkpt lat="44.94784" lon="3.97115">
        <ele>980</ele>
        <time>2021-02-01T15:02:33Z</time>
      </trkpt>
      <trkpt lat="44.94784" lon="3.97125">
        <ele>981</ele>
        <time>2021-02-01T15:02:39Z</time>
      </trkpt>
      <trkpt lat="44.94782" lon="3.97131">
        <ele>981</ele>
        <time>2021-02-01T15:02:43Z</time>
      </trkpt>
      <trkpt lat="44.94766" lon="3.97151">
        <ele>982</ele>
        <time>2021-02-01T15:03:00Z</time>
      </trkpt>
      <trkpt lat="44.94757" lon="3.9716">
        <ele>983</ele>
        <time>2021-02-01T15:03:09Z</time>
      </trkpt>
      <trkpt lat="44.94739" lon="3.9717">
        <ele>983</ele>
        <time>2021-02-01T15:03:24Z</time>
      </trkpt>
      <trkpt lat="44.94727" lon="3.97171">
        <ele>983</ele>
        <time>2021-02-01T15:03:34Z</time>
      </trkpt>
      <trkpt lat="44.9471" lon="3.97167">
        <ele>983</ele>
        <time>2021-02-01T15:03:48Z</time>
      </trkpt>
      <trkpt lat="44.947" lon="3.97174">
        <ele>983</ele>
        <time>2021-02-01T15:03:57Z</time>
      </trkpt>
      <trkpt lat="44.94689" lon="3.97177">
        <ele>983</ele>
        <time>2021-02-01T15:04:06Z</time>
      </trkpt>
      <trkpt lat="44.94675" lon="3.97177">
        <ele>983</ele>
        <time>2021-02-01T15:04:17Z</time>
      </trkpt>
      <trkpt lat="44.94664" lon="3.97181">
        <ele>983</ele>
        <time>2021-02-01T15:04:26Z</time>
      </trkpt>
      <trkpt lat="44.94652" lon="3.97189">
        <ele>981</ele>
        <time>2021-02-01T15:04:37Z</time>
      </trkpt>
      <trkpt lat="44.94644" lon="3.97192">
        <ele>980</ele>
        <time>2021-02-01T15:04:43Z</time>
      </trkpt>
      <trkpt lat="44.94624" lon="3.97213">
        <ele>977</ele>
        <time>2021-02-01T15:05:03Z</time>
      </trkpt>
      <trkpt lat="44.94613" lon="3.97228">
        <ele>976</ele>
        <time>2021-02-01T15:05:15Z</time>
      </trkpt>
      <trkpt lat="44.94604" lon="3.97244">
        <ele>974</ele>
        <time>2021-02-01T15:05:27Z</time>
      </trkpt>
      <trkpt lat="44.94587" lon="3.9732">
        <ele>975</ele>
        <time>2021-02-01T15:06:12Z</time>
      </trkpt>
      <trkpt lat="44.94586" lon="3.97333">
        <ele>975</ele>
        <time>2021-02-01T15:06:20Z</time>
      </trkpt>
      <trkpt lat="44.94586" lon="3.97347">
        <ele>976</ele>
        <time>2021-02-01T15:06:27Z</time>
      </trkpt>
      <trkpt lat="44.94592" lon="3.97374">
        <ele>978</ele>
        <time>2021-02-01T15:06:43Z</time>
      </trkpt>
      <trkpt lat="44.94593" lon="3.97419">
        <ele>980</ele>
        <time>2021-02-01T15:07:09Z</time>
      </trkpt>
      <trkpt lat="44.94607" lon="3.97505">
        <ele>981</ele>
        <time>2021-02-01T15:07:59Z</time>
      </trkpt>
      <trkpt lat="44.9461" lon="3.97535">
        <ele>980</ele>
        <time>2021-02-01T15:08:16Z</time>
      </trkpt>
      <trkpt lat="44.9461" lon="3.97548">
        <ele>980</ele>
        <time>2021-02-01T15:08:24Z</time>
      </trkpt>
      <trkpt lat="44.94618" lon="3.97605">
        <ele>979</ele>
        <time>2021-02-01T15:08:56Z</time>
      </trkpt>
      <trkpt lat="44.94622" lon="3.97657">
        <ele>979</ele>
        <time>2021-02-01T15:09:26Z</time>
      </trkpt>
      <trkpt lat="44.94627" lon="3.97699">
        <ele>980</ele>
        <time>2021-02-01T15:09:50Z</time>
      </trkpt>
      <trkpt lat="44.94627" lon="3.9771">
        <ele>980</ele>
        <time>2021-02-01T15:09:56Z</time>
      </trkpt>
      <trkpt lat="44.94631" lon="3.97737">
        <ele>981</ele>
        <time>2021-02-01T15:10:12Z</time>
      </trkpt>
      <trkpt lat="44.94631" lon="3.97743">
        <ele>980</ele>
        <time>2021-02-01T15:10:16Z</time>
      </trkpt>
      <trkpt lat="44.94628" lon="3.97748">
        <ele>980</ele>
        <time>2021-02-01T15:10:19Z</time>
      </trkpt>
      <trkpt lat="44.94628" lon="3.97776">
        <ele>981</ele>
        <time>2021-02-01T15:10:35Z</time>
      </trkpt>
      <trkpt lat="44.9463" lon="3.97786">
        <ele>982</ele>
        <time>2021-02-01T15:10:41Z</time>
      </trkpt>
      <trkpt lat="44.94628" lon="3.97828">
        <ele>983</ele>
        <time>2021-02-01T15:11:05Z</time>
      </trkpt>
      <trkpt lat="44.94615" lon="3.97921">
        <ele>982</ele>
        <time>2021-02-01T15:11:59Z</time>
      </trkpt>
      <trkpt lat="44.94614" lon="3.97939">
        <ele>983</ele>
        <time>2021-02-01T15:12:09Z</time>
      </trkpt>
      <trkpt lat="44.94616" lon="3.97966">
        <ele>985</ele>
        <time>2021-02-01T15:12:24Z</time>
      </trkpt>
      <trkpt lat="44.94611" lon="3.98004">
        <ele>985</ele>
        <time>2021-02-01T15:12:46Z</time>
      </trkpt>
      <trkpt lat="44.94613" lon="3.98038">
        <ele>985</ele>
        <time>2021-02-01T15:13:05Z</time>
      </trkpt>
      <trkpt lat="44.94611" lon="3.98076">
        <ele>984</ele>
        <time>2021-02-01T15:13:27Z</time>
      </trkpt>
      <trkpt lat="44.94611" lon="3.98097">
        <ele>984</ele>
        <time>2021-02-01T15:13:39Z</time>
      </trkpt>
      <trkpt lat="44.94622" lon="3.98197">
        <ele>981</ele>
        <time>2021-02-01T15:14:36Z</time>
      </trkpt>
      <trkpt lat="44.94637" lon="3.98244">
        <ele>979</ele>
        <time>2021-02-01T15:15:05Z</time>
      </trkpt>
      <trkpt lat="44.9465" lon="3.98269">
        <ele>977</ele>
        <time>2021-02-01T15:15:23Z</time>
      </trkpt>
      <trkpt lat="44.94654" lon="3.98273">
        <ele>977</ele>
        <time>2021-02-01T15:15:27Z</time>
      </trkpt>
      <trkpt lat="44.94661" lon="3.98276">
        <ele>977</ele>
        <time>2021-02-01T15:15:33Z</time>
      </trkpt>
      <trkpt lat="44.94664" lon="3.98286">
        <ele>975</ele>
        <time>2021-02-01T15:15:39Z</time>
      </trkpt>
      <trkpt lat="44.94668" lon="3.98323">
        <ele>969</ele>
        <time>2021-02-01T15:16:00Z</time>
      </trkpt>
      <trkpt lat="44.94669" lon="3.98374">
        <ele>961</ele>
        <time>2021-02-01T15:16:29Z</time>
      </trkpt>
      <trkpt lat="44.94665" lon="3.98415">
        <ele>955</ele>
        <time>2021-02-01T15:16:53Z</time>
      </trkpt>
      <trkpt lat="44.94668" lon="3.98436">
        <ele>952</ele>
        <time>2021-02-01T15:17:05Z</time>
      </trkpt>
      <trkpt lat="44.94672" lon="3.98448">
        <ele>951</ele>
        <time>2021-02-01T15:17:12Z</time>
      </trkpt>
      <trkpt lat="44.94686" lon="3.98462">
        <ele>949</ele>
        <time>2021-02-01T15:17:26Z</time>
      </trkpt>
      <trkpt lat="44.94687" lon="3.98468">
        <ele>948</ele>
        <time>2021-02-01T15:17:29Z</time>
      </trkpt>
      <trkpt lat="44.94686" lon="3.98476">
        <ele>947</ele>
        <time>2021-02-01T15:17:34Z</time>
      </trkpt>
      <trkpt lat="44.94675" lon="3.98515">
        <ele>943</ele>
        <time>2021-02-01T15:17:58Z</time>
      </trkpt>
      <trkpt lat="44.94668" lon="3.98555">
        <ele>938</ele>
        <time>2021-02-01T15:18:21Z</time>
      </trkpt>
      <trkpt lat="44.94667" lon="3.98583">
        <ele>935</ele>
        <time>2021-02-01T15:18:37Z</time>
      </trkpt>
      <trkpt lat="44.94668" lon="3.9861">
        <ele>933</ele>
        <time>2021-02-01T15:18:52Z</time>
      </trkpt>
      <trkpt lat="44.94675" lon="3.98657">
        <ele>931</ele>
        <time>2021-02-01T15:19:20Z</time>
      </trkpt>
      <trkpt lat="44.94687" lon="3.98714">
        <ele>931</ele>
        <time>2021-02-01T15:19:53Z</time>
      </trkpt>
      <trkpt lat="44.9469" lon="3.98746">
        <ele>931</ele>
        <time>2021-02-01T15:20:12Z</time>
      </trkpt>
      <trkpt lat="44.94688" lon="3.98768">
        <ele>931</ele>
        <time>2021-02-01T15:20:24Z</time>
      </trkpt>
      <trkpt lat="44.94682" lon="3.98811">
        <ele>930</ele>
        <time>2021-02-01T15:20:49Z</time>
      </trkpt>
      <trkpt lat="44.94667" lon="3.98874">
        <ele>930</ele>
        <time>2021-02-01T15:21:27Z</time>
      </trkpt>
      <trkpt lat="44.94665" lon="3.98892">
        <ele>931</ele>
        <time>2021-02-01T15:21:37Z</time>
      </trkpt>
      <trkpt lat="44.94677" lon="3.98903">
        <ele>931</ele>
        <time>2021-02-01T15:21:48Z</time>
      </trkpt>
      <trkpt lat="44.94663" lon="3.98929">
        <ele>932</ele>
        <time>2021-02-01T15:22:07Z</time>
      </trkpt>
      <trkpt lat="44.94648" lon="3.98942">
        <ele>932</ele>
        <time>2021-02-01T15:22:21Z</time>
      </trkpt>
      <trkpt lat="44.94645" lon="3.98955">
        <ele>933</ele>
        <time>2021-02-01T15:22:29Z</time>
      </trkpt>
      <trkpt lat="44.94589" lon="3.98998">
        <ele>933</ele>
        <time>2021-02-01T15:23:20Z</time>
      </trkpt>
      <trkpt lat="44.94582" lon="3.99">
        <ele>933</ele>
        <time>2021-02-01T15:23:26Z</time>
      </trkpt>
      <trkpt lat="44.94577" lon="3.98995">
        <ele>933</ele>
        <time>2021-02-01T15:23:30Z</time>
      </trkpt>
      <trkpt lat="44.94481" lon="3.99059">
        <ele>936</ele>
        <time>2021-02-01T15:24:55Z</time>
      </trkpt>
      <trkpt lat="44.94436" lon="3.99082">
        <ele>937</ele>
        <time>2021-02-01T15:25:34Z</time>
      </trkpt>
      <trkpt lat="44.94395" lon="3.99111">
        <ele>935</ele>
        <time>2021-02-01T15:26:10Z</time>
      </trkpt>
      <trkpt lat="44.94361" lon="3.99146">
        <ele>934</ele>
        <time>2021-02-01T15:26:44Z</time>
      </trkpt>
      <trkpt lat="44.94309" lon="3.99217">
        <ele>934</ele>
        <time>2021-02-01T15:27:42Z</time>
      </trkpt>
      <trkpt lat="44.94299" lon="3.99222">
        <ele>933</ele>
        <time>2021-02-01T15:27:51Z</time>
      </trkpt>
      <trkpt lat="44.94142" lon="3.99324">
        <ele>933</ele>
        <time>2021-02-01T15:30:09Z</time>
      </trkpt>
      <trkpt lat="44.94128" lon="3.99327">
        <ele>933</ele>
        <time>2021-02-01T15:30:20Z</time>
      </trkpt>
      <trkpt lat="44.941" lon="3.99327">
        <ele>932</ele>
        <time>2021-02-01T15:30:43Z</time>
      </trkpt>
      <trkpt lat="44.94087" lon="3.99333">
        <ele>933</ele>
        <time>2021-02-01T15:30:54Z</time>
      </trkpt>
      <trkpt lat="44.94077" lon="3.9934">
        <ele>933</ele>
        <time>2021-02-01T15:31:03Z</time>
      </trkpt>
      <trkpt lat="44.94064" lon="3.99355">
        <ele>933</ele>
        <time>2021-02-01T15:31:16Z</time>
      </trkpt>
      <trkpt lat="44.94029" lon="3.99387">
        <ele>933</ele>
        <time>2021-02-01T15:31:49Z</time>
      </trkpt>
      <trkpt lat="44.94009" lon="3.99402">
        <ele>933</ele>
        <time>2021-02-01T15:32:08Z</time>
      </trkpt>
      <trkpt lat="44.9397" lon="3.99407">
        <ele>931</ele>
        <time>2021-02-01T15:32:39Z</time>
      </trkpt>
      <trkpt lat="44.93975" lon="3.99399">
        <ele>930</ele>
        <time>2021-02-01T15:32:45Z</time>
      </trkpt>
      <trkpt lat="44.9394" lon="3.99403">
        <ele>928</ele>
        <time>2021-02-01T15:33:13Z</time>
      </trkpt>
      <trkpt lat="44.93921" lon="3.99422">
        <ele>930</ele>
        <time>2021-02-01T15:33:32Z</time>
      </trkpt>
      <trkpt lat="44.93919" lon="3.99432">
        <ele>931</ele>
        <time>2021-02-01T15:33:38Z</time>
      </trkpt>
    </trkseg>
  </trk>
</gpx>